Time;durP1;ratioP1;P1;durP2;ratioP2;P2;SDS_P1;SDS_P2;PMS_P1;PMS_P2;Temp;Humidity;BMP_temperature;BMP_pressure;BME280_temperature;BME280_humidity;BME280_pressure;Samples;Min_cycle;Max_cycle;Signal;HPM_P1;HPM_P2
2022/04/30 00:01:14;;;;;;;12.30;7.90;;;;;;;5.68;81.76;102797.34;5036553;28;20216;-71
2022/04/30 00:03:40;;;;;;;12.00;7.87;;;;;;;5.65;81.69;102797.09;5051475;28;20186;-71
2022/04/30 00:06:05;;;;;;;13.17;8.27;;;;;;;5.59;82.29;102794.16;5052025;28;20302;-71
2022/04/30 00:08:31;;;;;;;15.20;8.60;;;;;;;5.70;82.03;102795.78;5021926;28;20230;-71
2022/04/30 00:10:57;;;;;;;11.70;7.50;;;;;;;5.66;82.04;102785.31;5012237;28;20202;-71
2022/04/30 00:13:22;;;;;;;11.47;7.53;;;;;;;5.55;81.90;102784.53;5012259;28;20203;-71
2022/04/30 00:15:47;;;;;;;10.93;7.80;;;;;;;5.49;82.17;102780.69;5011343;28;20203;-71
2022/04/30 00:18:13;;;;;;;11.37;7.60;;;;;;;5.45;82.08;102786.31;5010113;28;20214;-71
2022/04/30 00:20:39;;;;;;;15.00;7.73;;;;;;;5.36;81.84;102784.03;5011793;28;20187;-71
2022/04/30 00:23:05;;;;;;;13.23;7.80;;;;;;;5.24;82.43;102779.69;5012198;28;20218;-71
2022/04/30 00:25:31;;;;;;;12.37;8.37;;;;;;;5.29;82.28;102779.25;5011936;28;20195;-71
2022/04/30 00:27:56;;;;;;;12.87;9.13;;;;;;;5.21;81.73;102776.97;5012019;28;20187;-71
2022/04/30 00:30:22;;;;;;;11.80;8.20;;;;;;;5.21;81.93;102782.03;4994318;28;20240;-71
2022/04/30 00:32:48;;;;;;;14.50;8.63;;;;;;;5.18;81.37;102779.28;5011487;28;20322;-71
2022/04/30 00:35:14;;;;;;;10.97;8.73;;;;;;;5.22;81.12;102776.19;5011895;28;20231;-71
2022/04/30 00:37:40;;;;;;;12.07;8.63;;;;;;;5.20;81.11;102770.97;5011676;28;20194;-71
2022/04/30 00:40:06;;;;;;;16.73;9.00;;;;;;;5.13;81.01;102770.44;5012068;28;20195;-71
2022/04/30 00:42:32;;;;;;;13.97;8.90;;;;;;;5.02;81.67;102772.19;5025351;28;20210;-71
2022/04/30 00:44:57;;;;;;;14.70;9.20;;;;;;;5.02;81.60;102767.13;5031589;28;20186;-71
2022/04/30 00:47:22;;;;;;;11.73;8.67;;;;;;;4.92;82.80;102764.69;5031223;28;20554;-71
2022/04/30 00:49:48;;;;;;;11.00;8.27;;;;;;;4.93;81.95;102771.53;5029937;28;20671;-71
2022/04/30 00:52:15;;;;;;;11.00;8.23;;;;;;;4.91;82.00;102760.41;5030274;28;20730;-71
2022/04/30 00:54:42;;;;;;;11.90;8.83;;;;;;;4.94;81.61;102764.81;5032850;28;20183;-71
2022/04/30 00:57:11;;;;;;;12.37;8.03;;;;;;;4.94;81.60;102767.34;5031210;28;20671;-71
2022/04/30 00:59:41;;;;;;;12.53;8.33;;;;;;;4.92;81.53;102767.25;5014867;28;20195;-71
2022/04/30 01:02:10;;;;;;;14.97;9.13;;;;;;;4.87;81.98;102767.66;5011487;28;20214;-71
2022/04/30 01:05:05;;;;;;;12.10;8.40;;;;;;;4.84;81.89;102767.47;5010699;28;20198;-71
2022/04/30 01:07:30;;;;;;;12.93;8.53;;;;;;;4.75;82.19;102762.56;5011390;28;20830;-71
2022/04/30 01:09:56;;;;;;;11.40;8.50;;;;;;;4.69;82.94;102758.75;5011285;28;20206;-71
2022/04/30 01:12:23;;;;;;;13.03;8.20;;;;;;;4.67;82.51;102756.09;5030926;28;20206;-71
2022/04/30 01:14:50;;;;;;;13.33;8.43;;;;;;;4.65;83.00;102755.06;5029769;28;20226;-71
2022/04/30 01:17:16;;;;;;;13.77;9.20;;;;;;;4.62;82.45;102753.97;5030328;28;20186;-71
2022/04/30 01:19:43;;;;;;;11.63;8.37;;;;;;;4.53;82.96;102755.84;5030501;28;20185;-71
2022/04/30 01:22:21;;;;;;;13.40;8.23;;;;;;;4.53;82.67;102761.81;5030486;28;20236;-70
2022/04/30 01:24:48;;;;;;;11.73;8.63;;;;;;;4.56;82.11;102751.00;5031056;28;20194;-71
2022/04/30 01:27:16;;;;;;;11.10;9.40;;;;;;;4.60;83.16;102758.06;5030592;28;20707;-71
2022/04/30 01:29:42;;;;;;;12.90;9.60;;;;;;;4.55;83.36;102749.25;5028501;28;20191;-71
2022/04/30 01:37:38;;;;;;;9.83;7.97;;;;;;;4.37;83.59;102750.41;5030450;28;20174;-71
2022/04/30 01:40:10;;;;;;;13.07;8.87;;;;;;;4.39;83.28;102742.16;5030160;28;20186;-71
2022/04/30 01:42:43;;;;;;;10.63;9.07;;;;;;;4.40;83.03;102743.91;5030512;28;20213;-71
2022/04/30 01:45:10;;;;;;;14.70;9.57;;;;;;;4.33;83.80;102746.72;5029818;28;20591;-70
2022/04/30 01:47:38;;;;;;;16.13;10.13;;;;;;;4.29;84.55;102736.28;5030381;28;20281;-70
2022/04/30 01:50:04;;;;;;;13.10;10.10;;;;;;;4.26;84.21;102734.38;5029178;28;20297;-71
2022/04/30 01:52:30;;;;;;;13.87;9.47;;;;;;;4.28;84.07;102732.84;5030082;28;20592;-70
2022/04/30 01:54:56;;;;;;;13.83;10.17;;;;;;;4.26;83.99;102726.78;5029936;28;20190;-71
2022/04/30 01:57:26;;;;;;;14.70;10.20;;;;;;;4.31;84.52;102724.56;5030564;28;20183;-71
2022/04/30 02:00:00;;;;;;;14.90;9.90;;;;;;;4.26;84.03;102720.81;5030128;28;20201;-71
2022/04/30 02:02:35;;;;;;;16.67;10.53;;;;;;;4.23;84.43;102724.00;5029919;28;20214;-71
2022/04/30 02:05:03;;;;;;;14.43;10.67;;;;;;;4.16;84.36;102719.28;5029865;28;20190;-71
2022/04/30 02:07:30;;;;;;;17.93;11.97;;;;;;;4.16;84.41;102720.91;5028676;28;20579;-71
2022/04/30 02:09:59;;;;;;;19.53;12.13;;;;;;;4.12;84.77;102718.91;5030061;28;20194;-70
2022/04/30 02:12:29;;;;;;;17.37;11.90;;;;;;;4.07;84.56;102715.16;5028293;28;20675;-71
2022/04/30 02:14:54;;;;;;;16.47;11.47;;;;;;;4.07;85.19;102718.56;5029766;28;20308;-71
2022/04/30 02:17:21;;;;;;;18.43;12.53;;;;;;;4.08;85.60;102717.81;5029329;28;20664;-70
2022/04/30 02:22:37;;;;;;;15.73;11.90;;;;;;;4.05;84.56;102715.03;5027947;28;20577;-71
2022/04/30 02:25:09;;;;;;;18.33;11.93;;;;;;;4.01;85.12;102713.03;5009296;28;20197;-71
2022/04/30 02:27:38;;;;;;;16.53;12.17;;;;;;;3.99;84.40;102714.56;5028731;28;20189;-71
2022/04/30 02:30:08;;;;;;;16.53;12.27;;;;;;;3.97;85.45;102708.53;5028845;28;20559;-71
2022/04/30 02:32:42;;;;;;;20.00;12.83;;;;;;;3.97;85.88;102698.38;5011660;28;20691;-71
2022/04/30 02:35:09;;;;;;;20.17;13.17;;;;;;;3.94;86.13;102697.25;5030037;28;20185;-71
2022/04/30 02:37:35;;;;;;;13.80;11.43;;;;;;;3.99;86.11;102704.44;5028251;28;20561;-71
2022/04/30 02:40:01;;;;;;;14.90;12.50;;;;;;;3.94;85.68;102695.63;5026316;28;20668;-71
2022/04/30 02:42:27;;;;;;;20.67;12.27;;;;;;;3.92;86.47;102697.13;5008419;28;20211;-71
2022/04/30 02:44:53;;;;;;;18.37;12.87;;;;;;;3.89;85.66;102694.38;5009087;28;20680;-71
2022/04/30 02:47:18;;;;;;;14.70;12.23;;;;;;;3.87;85.24;102693.38;5009738;28;20202;-71
2022/04/30 02:49:44;;;;;;;16.00;12.20;;;;;;;3.84;85.27;102687.19;5009738;28;20194;-70
2022/04/30 02:52:09;;;;;;;15.97;12.40;;;;;;;3.84;85.68;102692.25;5008137;28;20810;-71
2022/04/30 02:54:35;;;;;;;19.37;12.20;;;;;;;3.80;86.38;102696.22;5009557;28;20305;-71
2022/04/30 02:57:01;;;;;;;20.90;12.73;;;;;;;3.78;86.13;102691.81;5010663;28;20226;-71
2022/04/30 03:02:22;;;;;;;18.07;12.60;;;;;;;3.78;86.34;102689.28;5027308;28;20210;-71
2022/04/30 03:04:53;;;;;;;19.23;13.80;;;;;;;3.72;86.36;102689.69;5027870;28;20269;-71
2022/04/30 03:07:19;;;;;;;17.73;13.20;;;;;;;3.77;87.41;102688.38;5029010;28;20191;-71
2022/04/30 03:09:47;;;;;;;23.13;13.93;;;;;;;3.82;87.90;102681.16;5029670;28;20179;-71
2022/04/30 03:12:13;;;;;;;20.77;13.93;;;;;;;3.76;88.59;102679.03;5028142;28;20221;-71
2022/04/30 03:14:38;;;;;;;20.80;13.97;;;;;;;3.68;88.12;102674.16;5019380;28;20226;-70
2022/04/30 03:22:33;;;;;;;16.90;12.63;;;;;;;3.57;87.04;102674.97;5009535;28;20211;-70
2022/04/30 03:24:58;;;;;;;20.17;14.13;;;;;;;3.58;87.66;102669.16;5008799;28;20259;-71
2022/04/30 03:27:24;;;;;;;21.00;13.47;;;;;;;3.62;88.12;102661.91;5021542;28;20191;-71
2022/04/30 03:29:49;;;;;;;17.60;13.10;;;;;;;3.63;88.21;102671.25;5028044;28;20259;-71
2022/04/30 03:32:14;;;;;;;20.87;13.33;;;;;;;3.58;87.70;102664.97;5016518;28;20258;-70
2022/04/30 03:34:40;;;;;;;17.67;12.87;;;;;;;3.52;87.36;102661.06;5009100;28;20195;-70
2022/04/30 03:37:05;;;;;;;17.70;12.07;;;;;;;3.46;87.52;102660.63;5008962;28;20191;-71
2022/04/30 03:39:30;;;;;;;15.60;11.63;;;;;;;3.47;86.16;102665.81;5009313;28;20297;-71
2022/04/30 03:41:56;;;;;;;15.07;12.00;;;;;;;3.42;85.97;102656.97;5008782;28;20211;-71
2022/04/30 03:44:21;;;;;;;18.30;12.07;;;;;;;3.39;87.22;102666.84;5009157;28;20218;-71
2022/04/30 03:46:46;;;;;;;14.47;11.50;;;;;;;3.29;87.16;102664.38;5008603;28;20191;-71
2022/04/30 03:49:12;;;;;;;19.33;13.50;;;;;;;3.37;86.96;102660.81;5009704;28;20191;-71
2022/04/30 03:51:37;;;;;;;19.43;14.20;;;;;;;3.36;86.19;102661.53;5009184;28;20226;-71
2022/04/30 03:54:03;;;;;;;22.17;12.97;;;;;;;3.31;86.85;102665.38;5011407;28;20681;-71
2022/04/30 03:56:28;;;;;;;24.00;14.37;;;;;;;3.31;85.70;102662.84;5012594;28;20185;-71
2022/04/30 03:58:54;;;;;;;24.73;14.73;;;;;;;3.29;85.97;102668.56;5012204;28;20191;-70
2022/04/30 04:01:21;;;;;;;23.37;14.03;;;;;;;3.27;86.00;102672.63;5012045;28;20213;-71
2022/04/30 04:03:48;;;;;;;19.90;13.90;;;;;;;3.31;86.37;102674.63;5012064;28;20241;-72
2022/04/30 04:06:15;;;;;;;23.63;13.10;;;;;;;3.30;86.60;102675.38;5012988;28;20202;-71
2022/04/30 04:08:41;;;;;;;20.83;14.93;;;;;;;3.30;86.61;102682.97;5012105;28;20228;-71
2022/04/30 04:11:10;;;;;;;22.67;13.40;;;;;;;3.29;86.72;102679.56;5012508;28;20194;-71
2022/04/30 04:19:04;;;;;;;25.33;15.17;;;;;;;3.41;87.21;102677.09;5011157;28;20195;-70
2022/04/30 04:21:29;;;;;;;24.53;16.00;;;;;;;3.44;87.16;102673.16;5012030;28;20195;-71
2022/04/30 04:26:39;;;;;;;24.13;15.03;;;;;;;3.51;87.17;102670.34;5016741;28;20182;-71
2022/04/30 04:29:04;;;;;;;27.00;15.27;;;;;;;3.54;86.52;102677.28;5033843;28;20248;-70
2022/04/30 04:31:29;;;;;;;27.50;14.23;;;;;;;3.58;87.45;102669.16;5031326;28;20214;-70
2022/04/30 04:33:55;;;;;;;21.47;13.87;;;;;;;3.66;86.85;102675.66;5031722;28;20249;-70
2022/04/30 04:36:20;;;;;;;19.90;13.23;;;;;;;3.74;87.06;102677.16;5031161;28;20221;-69
2022/04/30 04:38:45;;;;;;;19.47;12.50;;;;;;;3.78;87.49;102674.09;5031123;28;20277;-70
2022/04/30 04:41:12;;;;;;;18.60;13.97;;;;;;;3.83;89.16;102673.66;5011905;28;20199;-70
2022/04/30 04:43:37;;;;;;;18.87;13.60;;;;;;;3.88;89.44;102674.91;5011307;28;20736;-70
2022/04/30 04:46:03;;;;;;;19.03;13.97;;;;;;;3.90;90.36;102678.41;5011711;28;20191;-71
2022/04/30 04:48:32;;;;;;;18.00;14.13;;;;;;;3.93;90.14;102672.69;5011312;28;20329;-71
2022/04/30 04:50:58;;;;;;;20.33;13.77;;;;;;;3.94;90.83;102671.91;5011645;28;20194;-71
2022/04/30 04:53:24;;;;;;;18.20;13.90;;;;;;;3.97;91.11;102675.59;5011143;28;20211;-71
2022/04/30 04:55:50;;;;;;;22.00;15.77;;;;;;;3.97;91.42;102673.06;5010502;28;20679;-71
2022/04/30 04:58:15;;;;;;;20.13;15.67;;;;;;;4.02;91.64;102680.97;5010309;28;20183;-72
2022/04/30 05:00:40;;;;;;;21.53;15.47;;;;;;;4.05;92.34;102674.47;5010579;28;20731;-72
2022/04/30 05:03:07;;;;;;;21.10;15.20;;;;;;;4.11;91.39;102679.13;5011100;28;20214;-71
2022/04/30 05:05:32;;;;;;;21.70;16.00;;;;;;;4.16;91.74;102683.78;5010670;28;20238;-72
2022/04/30 05:07:58;;;;;;;23.10;15.50;;;;;;;4.24;91.87;102679.28;5010165;28;20199;-71
2022/04/30 05:10:23;;;;;;;25.37;16.57;;;;;;;4.31;91.79;102677.31;5010963;28;20195;-72
2022/04/30 05:12:48;;;;;;;24.47;17.00;;;;;;;4.36;91.89;102683.59;5010356;28;20319;-72
2022/04/30 05:15:14;;;;;;;20.17;15.70;;;;;;;4.43;92.20;102678.22;5009782;28;20195;-71
2022/04/30 05:17:39;;;;;;;24.03;15.77;;;;;;;4.53;91.96;102683.19;5010934;28;20191;-71
2022/04/30 05:20:05;;;;;;;22.77;15.17;;;;;;;4.62;92.78;102677.88;5011060;28;20266;-71
2022/04/30 05:22:31;;;;;;;25.83;15.57;;;;;;;4.74;92.47;102688.91;5010655;28;20213;-71
2022/04/30 05:24:56;;;;;;;30.17;17.30;;;;;;;4.80;93.32;102684.28;5021687;28;20202;-71
2022/04/30 05:27:21;;;;;;;36.60;17.70;;;;;;;4.90;93.20;102679.06;5030240;28;20186;-71
2022/04/30 05:29:47;;;;;;;38.20;28.20;;;;;;;5.01;93.00;102683.28;5039307;28;20256;-71
2022/04/30 05:32:12;;;;;;;26.87;20.13;;;;;;;5.06;93.63;102682.81;5030854;28;20314;-71
2022/04/30 05:34:39;;;;;;;34.30;22.40;;;;;;;5.15;93.32;102682.59;5031099;28;20268;-71
2022/04/30 05:37:04;;;;;;;27.67;20.27;;;;;;;5.28;93.44;102681.00;5029940;28;20281;-71
2022/04/30 05:39:29;;;;;;;29.60;19.33;;;;;;;5.31;93.13;102672.72;5035642;28;20280;-71
2022/04/30 05:41:55;;;;;;;28.73;18.63;;;;;;;5.47;92.48;102676.41;5025578;28;20265;-71
2022/04/30 05:44:20;;;;;;;28.87;18.67;;;;;;;5.71;92.07;102679.78;5021888;28;20195;-71
2022/04/30 05:46:45;;;;;;;23.50;18.20;;;;;;;5.92;91.48;102677.06;5030896;28;20317;-71
2022/04/30 05:49:11;;;;;;;23.50;17.43;;;;;;;6.06;91.52;102671.22;5029979;28;20269;-71
2022/04/30 05:51:36;;;;;;;21.03;14.60;;;;;;;6.28;91.12;102678.59;5031963;28;20643;-71
2022/04/30 05:54:01;;;;;;;19.43;12.90;;;;;;;6.45;90.28;102678.91;5029123;28;20774;-71
2022/04/30 05:56:27;;;;;;;20.60;13.90;;;;;;;6.65;90.22;102677.66;5028411;28;20186;-71
2022/04/30 05:58:53;;;;;;;16.77;12.97;;;;;;;6.78;89.92;102672.59;5036991;28;20194;-71
2022/04/30 06:01:18;;;;;;;23.13;12.27;;;;;;;6.86;89.58;102672.28;5032662;28;20210;-71
2022/04/30 06:03:43;;;;;;;14.23;11.83;;;;;;;7.04;89.21;102675.13;5021813;28;20189;-70
2022/04/30 06:06:09;;;;;;;14.20;11.40;;;;;;;7.17;87.92;102682.72;5024292;28;20717;-70
2022/04/30 06:08:34;;;;;;;16.40;11.33;;;;;;;7.32;87.20;102676.03;5024337;28;20272;-71
2022/04/30 06:11:01;;;;;;;17.40;10.40;;;;;;;7.50;86.74;102682.25;5026257;28;20666;-70
2022/04/30 06:13:26;;;;;;;15.03;11.13;;;;;;;7.65;85.72;102680.66;5029832;28;20225;-70
2022/04/30 06:15:52;;;;;;;16.07;10.40;;;;;;;7.80;85.18;102684.09;5029078;28;20190;-70
2022/04/30 06:18:17;;;;;;;16.03;9.97;;;;;;;8.02;84.05;102677.81;5027971;28;20753;-70
2022/04/30 06:20:43;;;;;;;14.70;9.30;;;;;;;8.19;83.29;102674.56;5031075;28;20205;-71
2022/04/30 06:23:09;;;;;;;11.53;8.80;;;;;;;8.33;82.56;102675.41;5024336;28;20206;-71
2022/04/30 06:25:35;;;;;;;14.53;8.80;;;;;;;8.46;81.90;102680.41;5025700;28;20243;-70
2022/04/30 06:28:01;;;;;;;9.87;8.07;;;;;;;8.61;80.53;102683.88;5022573;28;20766;-71
2022/04/30 06:30:27;;;;;;;11.67;8.20;;;;;;;8.69;80.54;102683.50;5026677;28;20187;-70
2022/04/30 06:32:52;;;;;;;11.47;8.50;;;;;;;8.85;80.63;102685.22;5027872;28;20317;-70
2022/04/30 06:35:19;;;;;;;13.80;8.17;;;;;;;8.69;79.52;102683.50;5030898;28;20218;-70
2022/04/30 06:37:44;;;;;;;12.77;7.50;;;;;;;9.01;78.44;102678.50;5028189;28;20652;-71
2022/04/30 06:40:10;;;;;;;10.43;7.67;;;;;;;9.21;78.30;102688.13;5023575;28;20214;-70
2022/04/30 06:42:43;;;;;;;12.77;7.47;;;;;;;9.36;77.16;102680.41;5028703;28;20205;-71
2022/04/30 06:45:10;;;;;;;12.20;7.60;;;;;;;9.57;77.07;102679.88;5029897;28;20217;-70
2022/04/30 06:47:35;;;;;;;9.17;6.80;;;;;;;9.68;76.09;102678.75;5026687;28;20194;-71
2022/04/30 06:50:00;;;;;;;10.73;6.73;;;;;;;9.78;74.44;102681.00;5040100;28;20206;-71
2022/04/30 06:52:26;;;;;;;8.87;6.50;;;;;;;9.94;74.17;102675.84;5024452;28;20290;-71
2022/04/30 06:57:35;;;;;;;9.50;6.10;;;;;;;10.24;72.09;102668.88;5045935;28;20189;-71
2022/04/30 07:00:52;;;;;;;9.63;6.23;;;;;;;10.56;72.35;102673.91;5026330;28;20281;-70
2022/04/30 07:02:46;;;;;;;9.27;6.07;;;;;;;10.84;70.89;102666.75;5021400;28;20261;-71
2022/04/30 07:05:12;;;;;;;10.80;5.97;;;;;;;10.98;70.30;102665.72;5022353;28;20210;-71
2022/04/30 07:07:37;;;;;;;8.53;5.33;;;;;;;11.16;69.35;102664.84;5021946;28;20190;-71
2022/04/30 07:10:03;;;;;;;7.27;5.83;;;;;;;11.41;68.47;102667.75;5033776;28;20280;-70
2022/04/30 07:12:28;;;;;;;6.73;5.47;;;;;;;11.53;68.27;102660.59;5046937;28;20306;-71
2022/04/30 07:14:54;;;;;;;7.23;5.27;;;;;;;11.57;67.26;102654.78;5022712;28;20678;-74
2022/04/30 07:17:20;;;;;;;9.27;6.07;;;;;;;11.80;67.18;102658.41;5029993;28;20209;-72
2022/04/30 07:19:45;;;;;;;7.47;4.93;;;;;;;11.92;66.44;102657.25;5028512;28;20651;-71
2022/04/30 07:22:11;;;;;;;6.83;4.53;;;;;;;11.81;64.79;102652.47;5028712;28;20241;-72
2022/04/30 07:24:36;;;;;;;6.00;4.27;;;;;;;11.86;66.86;102651.84;5021236;28;20191;-71
2022/04/30 07:27:04;;;;;;;7.03;4.57;;;;;;;12.09;65.56;102653.72;5022320;28;20198;-72
2022/04/30 07:29:30;;;;;;;6.43;4.33;;;;;;;11.96;64.37;102645.41;5029669;28;20291;-73
2022/04/30 07:31:56;;;;;;;6.20;4.30;;;;;;;12.09;65.58;102650.25;5033051;28;20763;-73
2022/04/30 07:34:22;;;;;;;5.83;4.03;;;;;;;12.04;65.22;102655.22;5033302;28;20214;-73
2022/04/30 07:36:48;;;;;;;6.33;4.33;;;;;;;11.81;64.58;102653.34;5032484;28;20659;-73
2022/04/30 07:39:14;;;;;;;6.83;4.20;;;;;;;11.75;64.33;102655.63;5031771;28;20336;-73
2022/04/30 07:41:39;;;;;;;5.47;4.07;;;;;;;11.87;63.91;102648.47;5031640;28;20267;-72
2022/04/30 07:44:05;;;;;;;5.40;3.30;;;;;;;12.11;62.06;102657.22;5032519;28;20252;-72
2022/04/30 07:46:30;;;;;;;4.93;3.57;;;;;;;12.44;61.72;102647.47;5025717;28;20206;-72
2022/04/30 07:48:56;;;;;;;6.30;3.47;;;;;;;12.44;62.55;102655.19;5032192;28;20190;-73
2022/04/30 07:51:34;;;;;;;8.17;3.67;;;;;;;12.57;61.52;102652.25;5032666;28;20213;-73
2022/04/30 07:54:01;;;;;;;6.00;3.97;;;;;;;12.91;59.78;102650.22;5031989;28;20741;-73
2022/04/30 07:56:27;;;;;;;4.70;3.27;;;;;;;13.07;58.19;102657.72;5031169;28;20182;-73
2022/04/30 07:58:52;;;;;;;6.10;3.37;;;;;;;13.23;58.43;102660.09;5030996;28;20614;-72
2022/04/30 08:01:18;;;;;;;4.20;3.63;;;;;;;13.51;56.37;102649.09;5032236;28;20213;-73
2022/04/30 08:03:44;;;;;;;4.60;2.77;;;;;;;13.91;55.15;102648.00;5023103;28;20183;-74
2022/04/30 08:06:09;;;;;;;4.83;3.03;;;;;;;13.89;55.67;102649.66;5012797;28;20190;-73
2022/04/30 08:08:34;;;;;;;5.93;3.97;;;;;;;14.24;54.83;102641.47;5011376;28;20195;-73
2022/04/30 08:10:59;;;;;;;7.97;4.50;;;;;;;14.56;54.88;102643.41;5012190;28;20193;-73
2022/04/30 08:13:26;;;;;;;6.60;3.63;;;;;;;14.69;53.73;102642.06;5012612;28;20238;-73
2022/04/30 08:15:52;;;;;;;5.93;3.80;;;;;;;14.95;52.75;102642.03;5011863;28;20186;-73
2022/04/30 08:18:17;;;;;;;5.43;2.50;;;;;;;15.22;53.08;102637.72;5011035;28;20190;-73
2022/04/30 08:20:43;;;;;;;7.97;4.30;;;;;;;15.21;50.04;102635.97;5011755;28;20206;-73
2022/04/30 08:23:08;;;;;;;5.13;3.37;;;;;;;15.28;51.31;102637.88;5011972;28;20210;-72
2022/04/30 08:25:35;;;;;;;5.93;3.80;;;;;;;15.35;51.21;102637.28;5035450;28;20200;-72
2022/04/30 08:28:02;;;;;;;5.00;2.60;;;;;;;15.60;50.12;102633.66;5051843;28;20264;-72
2022/04/30 08:30:27;;;;;;;5.83;3.20;;;;;;;15.70;51.00;102628.78;5051730;28;20224;-72
2022/04/30 08:32:53;;;;;;;6.23;2.50;;;;;;;15.69;49.83;102631.31;5049858;28;20202;-72
2022/04/30 08:35:18;;;;;;;4.73;2.63;;;;;;;16.15;49.28;102629.13;5051683;28;20237;-72
2022/04/30 08:37:43;;;;;;;3.57;2.57;;;;;;;16.14;48.75;102627.38;5032699;28;20219;-72
2022/04/30 08:40:09;;;;;;;5.70;2.60;;;;;;;16.28;48.38;102620.84;5012086;28;20538;-73
2022/04/30 08:42:34;;;;;;;6.97;2.73;;;;;;;16.50;47.36;102621.44;5011288;28;20710;-72
2022/04/30 08:45:07;;;;;;;6.57;3.13;;;;;;;16.66;47.45;102623.53;5011670;28;20273;-72
2022/04/30 08:47:38;;;;;;;4.77;2.80;;;;;;;16.75;47.63;102621.16;5011779;28;20233;-74
2022/04/30 08:50:15;;;;;;;5.07;2.73;;;;;;;17.06;47.76;102620.13;5009882;28;20241;-72
2022/04/30 08:52:41;;;;;;;6.40;3.00;;;;;;;17.00;46.34;102614.81;5010277;28;20261;-72
2022/04/30 08:55:07;;;;;;;3.70;2.70;;;;;;;17.08;47.47;102611.53;5011310;28;20203;-72
2022/04/30 08:57:33;;;;;;;5.20;2.90;;;;;;;17.29;46.30;102616.31;5011643;28;20198;-73
2022/04/30 08:59:59;;;;;;;4.10;2.70;;;;;;;17.59;46.15;102604.84;5011178;28;20179;-73
2022/04/30 09:02:25;;;;;;;8.50;3.00;;;;;;;17.59;45.54;102606.59;5011452;28;20714;-73
2022/04/30 09:04:50;;;;;;;6.83;3.80;;;;;;;17.38;46.40;102612.19;5009735;28;20257;-73
2022/04/30 09:07:19;;;;;;;6.63;4.40;;;;;;;18.39;43.49;102606.31;5011247;28;20191;-72
2022/04/30 09:09:58;;;;;;;4.27;3.20;;;;;;;18.45;43.31;102609.00;5011469;28;20199;-72
2022/04/30 09:12:26;;;;;;;3.80;2.90;;;;;;;18.27;43.81;102612.16;5011410;28;20219;-72
2022/04/30 09:14:52;;;;;;;5.27;3.03;;;;;;;19.01;43.73;102603.78;5011403;28;20836;-73
2022/04/30 09:17:18;;;;;;;5.67;3.87;;;;;;;19.12;42.48;102598.72;5000405;28;20294;-74
2022/04/30 09:19:59;;;;;;;7.57;4.50;;;;;;;18.96;42.44;102596.78;5027932;28;20186;-73
2022/04/30 09:22:29;;;;;;;7.47;4.47;;;;;;;19.18;41.89;102607.47;5030181;28;20283;-73
2022/04/30 09:24:56;;;;;;;6.67;3.53;;;;;;;19.04;43.24;102601.22;5014245;28;20289;-73
2022/04/30 09:27:21;;;;;;;5.50;4.30;;;;;;;19.33;43.58;102594.69;5025739;28;20190;-73
2022/04/30 09:29:46;;;;;;;3.70;2.97;;;;;;;19.65;42.33;102585.53;5013501;28;20257;-73
2022/04/30 09:32:17;;;;;;;4.57;3.47;;;;;;;19.56;40.83;102587.16;5024237;28;20248;-73
2022/04/30 09:37:49;;;;;;;4.43;3.60;;;;;;;19.83;40.11;102593.53;5030388;28;20317;-73
2022/04/30 09:40:14;;;;;;;6.50;3.90;;;;;;;20.06;40.14;102586.78;5029783;28;20178;-74
2022/04/30 09:42:44;;;;;;;5.60;3.63;;;;;;;20.08;39.13;102587.69;5030479;28;20667;-73
2022/04/30 09:45:24;;;;;;;4.23;3.03;;;;;;;19.81;40.15;102594.38;5028831;28;20194;-72
2022/04/30 09:47:50;;;;;;;4.93;3.17;;;;;;;20.20;39.53;102589.53;5030338;28;20189;-72
2022/04/30 09:55:51;;;;;;;4.53;2.97;;;;;;;20.24;39.03;102584.38;5028362;28;20531;-71
2022/04/30 09:58:25;;;;;;;5.30;3.20;;;;;;;19.59;39.06;102582.00;5029957;28;20735;-71
2022/04/30 10:00:56;;;;;;;6.00;2.83;;;;;;;20.24;38.88;102575.69;5029934;28;20178;-71
2022/04/30 10:03:28;;;;;;;6.67;3.03;;;;;;;20.63;37.59;102579.44;5015912;28;20195;-71
2022/04/30 10:06:01;;;;;;;4.37;2.83;;;;;;;21.16;38.42;102566.72;5009926;28;20187;-71
2022/04/30 10:08:35;;;;;;;3.07;2.37;;;;;;;21.17;36.85;102566.72;5009561;28;20176;-71
2022/04/30 10:11:26;;;;;;;4.87;3.27;;;;;;;19.90;37.05;102569.28;5009780;28;20559;-70
2022/04/30 10:14:09;;;;;;;8.60;3.47;;;;;;;20.06;38.49;102572.91;5026741;28;20261;-71
2022/04/30 10:16:36;;;;;;;4.50;2.60;;;;;;;21.17;36.45;102561.50;5029628;28;20643;-71
2022/04/30 10:19:15;;;;;;;3.40;2.10;;;;;;;21.64;34.43;102559.91;5013379;28;20249;-71
2022/04/30 10:21:40;;;;;;;5.00;2.60;;;;;;;22.52;34.95;102559.94;5009721;28;20218;-71
2022/04/30 10:24:07;;;;;;;3.50;2.30;;;;;;;22.74;33.22;102553.81;5018201;28;20240;-71
2022/04/30 10:26:33;;;;;;;5.23;2.47;;;;;;;22.26;33.66;102554.75;5040371;28;20194;-71
2022/04/30 10:29:00;;;;;;;5.37;2.97;;;;;;;22.43;34.41;102543.38;5049419;28;20182;-71
2022/04/30 10:31:25;;;;;;;4.73;2.50;;;;;;;21.82;35.35;102551.25;5048847;28;20259;-72
2022/04/30 10:33:51;;;;;;;5.50;2.33;;;;;;;21.71;33.24;102551.25;5049769;28;20218;-71
2022/04/30 10:36:16;;;;;;;4.40;2.20;;;;;;;20.81;33.76;102547.41;5039127;28;20206;-71
2022/04/30 10:38:52;;;;;;;5.57;2.83;;;;;;;20.23;35.70;102551.38;5010076;28;20191;-71
2022/04/30 10:41:17;;;;;;;4.97;2.60;;;;;;;20.33;35.94;102541.94;5009514;28;20210;-71
2022/04/30 10:43:43;;;;;;;2.80;1.80;;;;;;;20.52;36.61;102549.00;5008025;28;20266;-71
2022/04/30 10:46:17;;;;;;;3.50;2.33;;;;;;;20.21;35.49;102549.63;5009529;28;20194;-71
2022/04/30 10:48:42;;;;;;;6.83;2.63;;;;;;;20.35;35.72;102541.06;5008919;28;20194;-72
2022/04/30 10:51:09;;;;;;;4.57;2.60;;;;;;;20.03;36.43;102539.94;5009413;28;20195;-71
2022/04/30 10:53:38;;;;;;;4.40;2.03;;;;;;;20.44;35.11;102545.47;5015269;28;20233;-72
2022/04/30 10:56:04;;;;;;;3.40;1.90;;;;;;;19.96;35.55;102537.28;5009328;28;20198;-72
2022/04/30 10:58:32;;;;;;;4.23;1.70;;;;;;;19.65;35.59;102538.72;5009340;28;20245;-72
2022/04/30 11:01:10;;;;;;;3.67;1.60;;;;;;;19.27;35.25;102541.78;5010122;28;20179;-72
2022/04/30 11:03:35;;;;;;;2.13;1.40;;;;;;;19.08;35.26;102537.22;5038990;28;20190;-71
2022/04/30 11:06:00;;;;;;;4.73;1.97;;;;;;;19.48;34.45;102529.88;5038951;28;20206;-71
2022/04/30 11:08:26;;;;;;;3.93;1.80;;;;;;;19.66;33.80;102524.03;5032444;28;20209;-71
2022/04/30 11:10:53;;;;;;;3.23;2.47;;;;;;;20.23;34.17;102524.50;5023124;28;20195;-71
2022/04/30 11:13:19;;;;;;;3.17;1.70;;;;;;;20.08;32.93;102519.22;5013359;28;20222;-71
2022/04/30 11:15:45;;;;;;;2.03;1.43;;;;;;;19.76;34.28;102524.09;5012934;28;20191;-71
2022/04/30 11:18:10;;;;;;;2.97;1.40;;;;;;;19.56;35.46;102516.97;5013309;28;20186;-71
2022/04/30 11:20:36;;;;;;;3.57;1.70;;;;;;;19.30;35.69;102521.06;5012044;28;20574;-71
2022/04/30 11:23:01;;;;;;;2.63;1.40;;;;;;;18.95;34.83;102523.22;5012842;28;20561;-71
2022/04/30 11:25:39;;;;;;;2.90;1.57;;;;;;;18.73;35.44;102515.09;5011798;28;20236;-71
2022/04/30 11:28:06;;;;;;;4.43;1.60;;;;;;;18.72;35.71;102511.66;5012895;28;20278;-71
2022/04/30 11:30:38;;;;;;;2.63;1.17;;;;;;;18.66;35.58;102513.31;5012944;28;20186;-71
2022/04/30 11:33:04;;;;;;;3.53;1.40;;;;;;;18.50;35.84;102511.34;5011179;28;20243;-71
2022/04/30 11:35:30;;;;;;;2.40;1.50;;;;;;;18.30;36.06;102517.94;5013012;28;20226;-71
2022/04/30 11:37:55;;;;;;;4.23;1.60;;;;;;;18.07;35.83;102519.31;5012874;28;20214;-71
2022/04/30 11:40:22;;;;;;;3.63;1.57;;;;;;;18.04;35.31;102512.34;5012857;28;20614;-71
2022/04/30 11:42:57;;;;;;;2.30;1.83;;;;;;;17.58;36.15;102516.72;5012728;28;20222;-71
2022/04/30 11:45:24;;;;;;;3.73;1.50;;;;;;;17.43;36.56;102514.75;5011179;28;20241;-71
2022/04/30 11:47:50;;;;;;;4.30;1.57;;;;;;;17.71;38.70;102513.50;5012898;28;20191;-71
2022/04/30 11:50:15;;;;;;;1.73;1.40;;;;;;;17.42;37.42;102514.72;5012715;28;20191;-71
2022/04/30 11:52:41;;;;;;;4.17;1.80;;;;;;;17.37;38.43;102514.59;5012909;28;20207;-71
2022/04/30 11:55:07;;;;;;;2.80;1.83;;;;;;;17.43;38.67;102517.34;5012443;28;20675;-71
2022/04/30 11:57:34;;;;;;;4.17;2.37;;;;;;;17.42;38.11;102509.53;5016586;28;20225;-71